createdAt,value
2023-01-18T05:04:36.570Z,92.23
2023-01-18T05:08:48.457Z,92.32
2023-01-18T05:17:39.243Z,92.18
2023-01-18T05:21:50.694Z,91.77
2023-01-18T05:26:04.659Z,91.20
2023-01-18T05:30:16.304Z,90.50
2023-01-18T05:34:28.604Z,91.36
2023-01-18T05:38:40.073Z,91.68
2023-01-18T05:42:51.568Z,91.97
2023-01-18T05:47:03.240Z,91.48
2023-01-18T05:51:14.689Z,91.91
2023-01-18T05:55:27.237Z,91.47
2023-01-18T05:59:38.892Z,92.41
2023-01-18T06:03:50.373Z,92.80
2023-01-18T06:08:02.674Z,92.61
2023-01-18T06:12:14.243Z,92.33
2023-01-18T06:16:25.770Z,92.35
2023-01-18T06:20:37.358Z,91.84
2023-01-18T06:24:48.825Z,92.02
2023-01-18T06:29:00.327Z,91.60
2023-01-18T06:33:11.853Z,91.15
2023-01-18T06:37:23.329Z,91.64
2023-01-18T06:41:34.859Z,91.30
2023-01-18T06:45:52.526Z,91.49
2023-01-18T06:50:04.344Z,91.59
2023-01-18T06:54:16.666Z,91.83
2023-01-18T06:58:30.000Z,91.39
2023-01-18T07:02:41.482Z,91.22
2023-01-18T07:06:53.731Z,91.29
2023-01-18T07:11:07.943Z,91.27
2023-01-18T07:15:22.189Z,90.53
2023-01-18T07:19:34.889Z,91.00
2023-01-18T07:23:46.382Z,90.95
2023-01-18T07:27:57.916Z,91.03
2023-01-18T07:32:09.416Z,91.62
2023-01-18T07:36:22.236Z,92.12
2023-01-18T07:40:34.005Z,92.43
2023-01-18T07:44:45.455Z,92.57
2023-01-18T07:48:58.351Z,92.73
2023-01-18T07:53:09.878Z,93.04
2023-01-18T07:57:21.452Z,92.79
2023-01-18T08:01:33.015Z,93.26
2023-01-18T08:05:45.476Z,92.97
2023-01-18T08:09:58.013Z,92.73
2023-01-18T08:14:09.571Z,92.92
2023-01-18T08:18:21.416Z,92.41
2023-01-18T08:22:32.854Z,92.12
2023-01-18T08:26:44.287Z,91.48
2023-01-18T08:31:12.378Z,91.42
2023-01-18T08:35:25.877Z,91.49
2023-01-18T08:39:38.381Z,90.46
2023-01-18T08:43:50.981Z,89.10
2023-01-18T08:48:09.339Z,88.35
2023-01-18T08:52:20.925Z,86.61
2023-01-18T08:56:32.399Z,85.87
2023-01-18T09:00:45.614Z,85.51
2023-01-18T09:04:58.135Z,84.20
2023-01-18T09:09:11.450Z,83.11
2023-01-18T09:13:22.940Z,82.73
2023-01-18T09:17:34.466Z,82.91
2023-01-18T09:21:46.509Z,82.54
2023-01-18T09:26:10.339Z,81.72
2023-01-18T09:30:21.948Z,81.92
2023-01-18T09:34:34.654Z,80.93
2023-01-18T09:38:46.666Z,80.16
2023-01-18T09:42:58.508Z,78.96
2023-01-18T09:47:22.191Z,77.51
2023-01-18T09:51:49.758Z,77.91
2023-01-18T09:56:18.613Z,78.03
2023-01-18T10:00:33.605Z,75.38
2023-01-18T10:04:49.636Z,75.17
2023-01-18T10:09:07.015Z,76.71
2023-01-18T10:13:50.912Z,73.90
2023-01-18T10:18:02.494Z,70.79
2023-01-18T10:22:46.873Z,70.70
2023-01-18T10:27:10.820Z,71.98
2023-01-18T10:31:48.059Z,69.74
2023-01-18T10:36:16.632Z,70.37
2023-01-18T10:40:28.156Z,69.03
2023-01-18T10:44:40.211Z,69.32
2023-01-18T10:48:54.370Z,67.13
2023-01-18T10:53:27.338Z,65.46
2023-01-18T10:57:52.086Z,65.27
2023-01-18T11:02:05.004Z,62.64
2023-01-18T11:06:19.190Z,63.17
2023-01-18T11:10:38.028Z,64.81
2023-01-18T11:14:49.509Z,66.07
2023-01-18T11:19:15.882Z,64.42
2023-01-18T11:23:36.192Z,64.28
2023-01-18T11:27:49.284Z,63.69
2023-01-18T11:32:03.670Z,63.55
2023-01-18T11:36:15.914Z,63.47
2023-01-18T11:40:29.711Z,62.73
2023-01-18T11:45:04.985Z,62.33
2023-01-18T11:49:28.780Z,63.66
2023-01-18T11:54:11.225Z,62.18
2023-01-18T11:58:26.803Z,63.07
2023-01-18T12:02:57.804Z,63.06
2023-01-18T12:07:18.060Z,62.89
2023-01-18T12:11:46.724Z,62.49
2023-01-18T12:16:28.164Z,76.29
2023-01-18T12:21:07.499Z,61.46
2023-01-18T12:26:12.276Z,60.26
2023-01-18T12:30:51.459Z,60.95
2023-01-18T12:35:30.236Z,59.86
2023-01-18T12:39:56.949Z,60.47
2023-01-18T12:44:29.924Z,61.18
2023-01-18T12:48:41.341Z,60.71
2023-01-18T12:52:58.553Z,61.39
2023-01-18T12:57:11.377Z,57.77
2023-01-18T13:01:27.114Z,58.96
2023-01-18T13:05:54.092Z,58.64
2023-01-18T13:10:13.671Z,60.26
2023-01-18T13:14:33.388Z,61.94
2023-01-18T13:19:03.923Z,63.53
2023-01-18T13:23:39.771Z,62.25
2023-01-18T13:28:02.683Z,62.11
2023-01-18T13:32:29.156Z,61.13
2023-01-18T13:36:45.607Z,58.18
2023-01-18T13:41:03.881Z,55.84
2023-01-18T13:45:26.001Z,53.92
2023-01-18T13:49:46.294Z,53.94
2023-01-18T13:53:57.770Z,55.10
2023-01-18T13:58:27.584Z,57.06
2023-01-18T14:02:42.312Z,57.16
2023-01-18T14:06:57.365Z,57.05
2023-01-18T14:11:20.796Z,58.38
2023-01-18T14:15:53.357Z,58.64
2023-01-18T14:20:34.944Z,59.86
2023-01-18T14:25:23.885Z,59.46
2023-01-18T14:29:46.201Z,61.09
2023-01-18T14:33:57.743Z,61.06
2023-01-18T14:38:18.851Z,61.84
2023-01-18T14:42:34.778Z,61.65
2023-01-18T14:46:55.988Z,61.04
2023-01-18T14:51:07.532Z,60.57
2023-01-18T14:55:30.906Z,58.63
2023-01-18T14:59:54.036Z,58.59
2023-01-18T15:04:26.199Z,56.30
2023-01-18T15:08:39.350Z,55.66
2023-01-18T15:12:56.324Z,56.16
2023-01-18T15:17:11.518Z,58.56
2023-01-18T15:21:28.113Z,59.17
2023-01-18T15:25:40.253Z,60.06
2023-01-18T15:29:54.465Z,59.39
2023-01-18T15:34:13.253Z,60.31
2023-01-18T15:38:25.004Z,61.93
2023-01-18T15:42:55.123Z,62.38
2023-01-18T15:47:15.657Z,63.46
2023-01-18T15:51:45.846Z,64.57
2023-01-18T15:56:03.324Z,65.07
2023-01-18T16:00:30.816Z,66.72
2023-01-18T16:04:42.368Z,66.89
2023-01-18T16:09:16.009Z,68.00
2023-01-18T16:13:37.093Z,69.98
2023-01-18T16:17:48.620Z,71.19
2023-01-18T16:22:06.607Z,71.04
2023-01-18T16:26:23.138Z,70.12
2023-01-18T16:30:38.168Z,70.22
2023-01-18T16:34:49.961Z,70.00
2023-01-18T16:39:05.278Z,71.12
2023-01-18T16:43:29.738Z,71.99
2023-01-18T16:47:41.260Z,71.78
2023-01-18T16:51:52.836Z,71.19
2023-01-18T16:56:04.497Z,72.68
2023-01-18T17:00:25.137Z,75.25
2023-01-18T17:04:36.636Z,77.04
2023-01-18T17:08:49.287Z,78.04
2023-01-18T17:13:01.310Z,78.79
2023-01-18T17:17:13.108Z,79.80
2023-01-18T17:21:24.605Z,79.90
2023-01-18T17:25:36.595Z,80.09
2023-01-18T17:29:48.044Z,80.43
2023-01-18T17:34:00.406Z,80.63
2023-01-18T17:38:22.835Z,80.87
2023-01-18T17:42:35.481Z,81.05
2023-01-18T17:46:47.030Z,81.89
2023-01-18T17:50:58.786Z,81.92
2023-01-18T17:55:13.032Z,81.93
2023-01-18T17:59:24.669Z,81.98
2023-01-18T18:03:41.155Z,82.06
2023-01-18T18:07:52.661Z,82.37
2023-01-18T18:12:05.163Z,83.18
2023-01-18T18:16:18.716Z,83.47
2023-01-18T18:20:31.953Z,84.26
2023-01-18T18:24:43.379Z,84.27
2023-01-18T18:28:54.839Z,84.30
2023-01-18T18:33:06.343Z,84.60
2023-01-18T18:37:19.685Z,84.92
2023-01-18T18:41:31.356Z,84.96
2023-01-18T18:45:44.874Z,85.38
2023-01-18T18:49:56.545Z,85.15
2023-01-18T18:54:10.763Z,85.45
2023-01-18T18:58:22.245Z,84.79
2023-01-18T19:02:34.507Z,84.70
2023-01-18T19:06:46.081Z,84.98
2023-01-18T19:10:57.608Z,84.90
2023-01-18T19:15:09.393Z,84.96
2023-01-18T19:19:21.343Z,84.66
2023-01-18T19:23:33.070Z,83.48
2023-01-18T19:27:44.650Z,82.29
2023-01-18T19:31:56.116Z,81.73
2023-01-18T19:36:13.737Z,82.02
2023-01-18T19:40:50.825Z,81.70
2023-01-18T20:11:15.835Z,81.97
2023-01-18T20:15:27.333Z,82.08
2023-01-18T20:19:38.837Z,81.92
2023-01-18T20:23:50.337Z,81.39
2023-01-18T20:28:01.940Z,81.38
2023-01-18T20:32:16.707Z,81.86
2023-01-18T20:36:29.654Z,82.09
2023-01-18T20:47:11.325Z,81.87
2023-01-18T20:51:22.904Z,82.18
2023-01-18T21:19:46.037Z,83.28
2023-01-18T21:23:57.860Z,82.90
2023-01-18T21:28:09.368Z,82.87
2023-01-18T21:32:22.676Z,83.88
2023-01-18T21:36:34.179Z,83.59
2023-01-18T21:40:45.761Z,84.14
2023-01-18T21:45:15.901Z,84.79
2023-01-18T21:54:18.157Z,85.11
2023-01-18T21:58:48.376Z,85.83
2023-01-18T22:02:59.918Z,86.08
2023-01-18T22:07:11.525Z,85.99
2023-01-18T22:11:23.141Z,85.81
2023-01-18T22:15:34.989Z,86.03
2023-01-18T22:19:46.794Z,86.48
2023-01-18T22:23:58.781Z,86.95
2023-01-18T22:28:10.766Z,86.81
